createdAt,value
2022-12-04T00:01:28.385Z,2.25
2022-12-04T00:04:00.484Z,1.87
2022-12-04T00:06:29.032Z,2.16
2022-12-04T00:08:57.547Z,1.48
2022-12-04T00:11:28.623Z,2.20
2022-12-04T00:14:04.591Z,2.47
2022-12-04T00:16:36.005Z,1.77
2022-12-04T00:19:05.296Z,1.84
2022-12-04T00:21:33.656Z,1.40
2022-12-04T00:24:02.422Z,1.75
2022-12-04T00:26:33.619Z,0.99
2022-12-04T00:29:02.111Z,2.32
2022-12-04T00:31:31.039Z,2.78
2022-12-04T00:34:00.348Z,2.24
2022-12-04T00:36:29.415Z,2.59
2022-12-04T00:38:59.847Z,2.29
2022-12-04T00:41:29.142Z,2.74
2022-12-04T00:43:57.587Z,2.71
2022-12-04T00:46:26.102Z,2.41
2022-12-04T00:48:54.555Z,2.39
2022-12-04T00:51:24.417Z,2.70
2022-12-04T00:53:52.965Z,2.15
2022-12-04T00:56:26.435Z,2.39
2022-12-04T00:58:58.402Z,2.45
2022-12-04T01:01:28.620Z,2.66
2022-12-04T01:03:57.185Z,2.88
2022-12-04T01:06:30.305Z,2.94
2022-12-04T01:08:59.474Z,2.59
2022-12-04T01:11:28.920Z,2.56
2022-12-04T01:13:58.379Z,2.17
2022-12-04T01:16:29.601Z,2.65
2022-12-04T01:18:58.236Z,2.73
2022-12-04T01:21:27.642Z,3.01
2022-12-04T01:23:56.567Z,3.15
2022-12-04T01:26:25.342Z,3.10
2022-12-04T01:28:53.723Z,3.36
2022-12-04T01:31:22.474Z,2.98
2022-12-04T01:33:51.258Z,2.98
2022-12-04T01:36:21.627Z,3.10
2022-12-04T01:38:50.143Z,3.22
2022-12-04T01:41:21.175Z,2.84
2022-12-04T01:44:12.600Z,3.00
2022-12-04T01:46:41.508Z,2.47
2022-12-04T01:49:16.105Z,1.74
2022-12-04T01:51:50.692Z,2.25
2022-12-04T01:54:29.035Z,2.35
2022-12-04T01:57:09.695Z,2.64
2022-12-04T01:59:41.169Z,2.50
2022-12-04T02:02:15.744Z,2.35
2022-12-04T02:04:44.148Z,2.50
2022-12-04T02:07:13.167Z,2.14
2022-12-04T02:09:41.655Z,1.99
2022-12-04T02:12:38.573Z,2.21
2022-12-04T02:15:12.807Z,2.90
2022-12-04T02:18:06.422Z,2.51
2022-12-04T02:20:37.647Z,2.03
2022-12-04T02:23:36.843Z,2.03
2022-12-04T02:26:13.884Z,2.16
2022-12-04T02:28:54.096Z,2.26
2022-12-04T02:31:24.096Z,2.35
2022-12-04T02:34:15.136Z,2.09
2022-12-04T02:37:05.098Z,2.41
2022-12-04T02:39:36.849Z,2.55
2022-12-04T02:42:17.800Z,2.73
2022-12-04T02:44:49.828Z,2.16
2022-12-04T02:47:20.482Z,1.94
2022-12-04T02:50:01.671Z,2.29
2022-12-04T02:52:32.676Z,1.66
2022-12-04T02:55:08.331Z,2.43
2022-12-04T02:57:40.892Z,1.73
2022-12-04T03:00:10.204Z,2.47
2022-12-04T03:02:47.547Z,2.50
2022-12-04T03:05:18.960Z,2.21
2022-12-04T03:07:52.325Z,2.27
2022-12-04T03:10:28.341Z,2.21
2022-12-04T03:13:12.707Z,2.45
2022-12-04T03:15:43.630Z,2.50
2022-12-04T03:18:25.101Z,2.71
2022-12-04T03:20:56.882Z,2.95
2022-12-04T03:23:29.138Z,2.94
2022-12-04T03:26:13.007Z,2.56
2022-12-04T03:29:09.633Z,2.25
2022-12-04T03:31:47.769Z,2.14
2022-12-04T03:34:22.147Z,2.52
2022-12-04T03:36:54.253Z,1.82
2022-12-04T03:39:58.432Z,2.33
2022-12-04T03:42:30.324Z,1.99
2022-12-04T03:45:02.927Z,2.30
2022-12-04T03:47:59.645Z,2.57
2022-12-04T03:50:44.502Z,2.39
2022-12-04T03:53:39.986Z,2.62
2022-12-04T03:56:24.050Z,2.49
2022-12-04T03:58:58.730Z,2.21
2022-12-04T04:01:33.920Z,2.13
2022-12-04T04:04:02.392Z,1.65
2022-12-04T04:06:38.352Z,2.35
2022-12-04T04:09:13.706Z,2.36
2022-12-04T04:11:48.913Z,2.35
2022-12-04T04:14:44.827Z,2.93
2022-12-04T04:17:38.152Z,3.11
2022-12-04T04:20:32.281Z,3.24
2022-12-04T04:23:19.765Z,3.06
2022-12-04T04:25:48.220Z,2.91
2022-12-04T04:28:36.090Z,3.06
2022-12-04T04:31:28.413Z,3.22
2022-12-04T04:34:16.699Z,3.32
2022-12-04T04:36:55.313Z,3.41
2022-12-04T04:39:41.895Z,3.51
2022-12-04T04:42:22.886Z,3.25
2022-12-04T04:45:30.057Z,3.48
2022-12-04T04:48:20.749Z,3.30
2022-12-04T04:50:49.747Z,3.32
2022-12-04T04:53:20.878Z,3.40
2022-12-04T04:55:50.557Z,3.38
2022-12-04T04:58:19.808Z,3.33
2022-12-04T05:01:09.972Z,3.23
2022-12-04T05:03:38.448Z,3.07
2022-12-04T05:06:06.964Z,3.25
2022-12-04T05:08:36.197Z,2.64
2022-12-04T05:11:04.746Z,2.98
2022-12-04T05:13:33.839Z,2.87
2022-12-04T05:16:03.984Z,3.18
2022-12-04T05:18:32.646Z,3.40
2022-12-04T05:21:08.831Z,3.42
2022-12-04T05:23:37.188Z,3.40
2022-12-04T05:26:06.414Z,3.49
2022-12-04T05:28:34.793Z,2.68
2022-12-04T05:31:03.736Z,3.07
2022-12-04T05:33:32.079Z,3.07
2022-12-04T05:36:02.466Z,2.85
2022-12-04T05:38:31.543Z,3.23
2022-12-04T05:41:01.324Z,3.29
2022-12-04T05:43:29.792Z,3.49
2022-12-04T05:46:05.736Z,3.49
2022-12-04T05:48:35.100Z,3.56
2022-12-04T05:51:09.551Z,3.64
2022-12-04T05:53:38.220Z,3.61
2022-12-04T05:56:07.722Z,3.62
2022-12-04T05:58:36.799Z,3.66
2022-12-04T06:01:15.805Z,3.53
2022-12-04T06:03:44.330Z,3.50
2022-12-04T06:06:38.967Z,3.27
2022-12-04T06:09:07.929Z,3.45
2022-12-04T06:11:37.850Z,3.54
2022-12-04T06:14:07.588Z,3.51
2022-12-04T06:16:41.055Z,3.68
2022-12-04T06:19:17.244Z,3.73
2022-12-04T06:21:47.356Z,3.70
2022-12-04T06:24:24.564Z,3.78
2022-12-04T06:27:26.319Z,3.81
2022-12-04T06:29:45.642Z,3.75
2022-12-04T06:32:17.955Z,3.74
2022-12-04T06:34:53.564Z,3.25
2022-12-04T06:37:24.390Z,3.50
2022-12-04T06:39:53.103Z,3.49
2022-12-04T06:42:21.593Z,3.26
2022-12-04T06:44:49.972Z,3.47
2022-12-04T06:47:18.437Z,3.40
2022-12-04T06:49:50.091Z,3.53
2022-12-04T06:52:18.666Z,3.69
2022-12-04T06:54:47.239Z,3.78
2022-12-04T06:57:16.281Z,3.73
2022-12-04T06:59:44.719Z,3.81
2022-12-04T07:02:13.267Z,3.68
2022-12-04T07:04:41.675Z,3.71
2022-12-04T07:07:10.595Z,3.62
2022-12-04T07:09:39.602Z,3.69
2022-12-04T07:12:08.093Z,3.61
2022-12-04T07:14:36.561Z,3.91
2022-12-04T07:17:05.157Z,3.66
2022-12-04T07:19:33.511Z,3.63
2022-12-04T07:22:02.009Z,3.49
2022-12-04T07:24:30.427Z,2.97
2022-12-04T07:26:58.870Z,3.11
2022-12-04T07:29:27.385Z,2.96
2022-12-04T07:31:55.892Z,3.31
2022-12-04T07:34:24.540Z,2.71
2022-12-04T07:36:52.996Z,1.95
2022-12-04T07:39:21.459Z,1.88
2022-12-04T07:41:49.995Z,2.44
2022-12-04T07:44:19.961Z,2.48
2022-12-04T07:46:48.924Z,2.55
2022-12-04T07:49:17.378Z,2.30
2022-12-04T07:51:45.744Z,2.03
2022-12-04T07:54:14.236Z,2.56
2022-12-04T07:56:42.683Z,2.77
2022-12-04T07:59:11.736Z,2.02
2022-12-04T08:01:40.726Z,2.35
2022-12-04T08:04:10.894Z,2.86
2022-12-04T08:06:39.976Z,2.49
2022-12-04T08:09:10.260Z,2.90
2022-12-04T08:11:39.571Z,3.18
2022-12-04T08:14:09.281Z,2.36
2022-12-04T08:16:37.818Z,2.84
2022-12-04T08:19:06.516Z,2.73
2022-12-04T08:21:35.006Z,3.19
2022-12-04T08:24:03.871Z,3.05
2022-12-04T08:26:34.037Z,3.41
2022-12-04T08:29:03.378Z,3.21
2022-12-04T08:31:35.080Z,2.75
2022-12-04T08:34:05.420Z,2.66
2022-12-04T08:36:34.500Z,2.64
2022-12-04T08:39:03.969Z,3.18
2022-12-04T08:41:33.205Z,3.24
2022-12-04T08:44:02.254Z,3.19
2022-12-04T08:46:30.720Z,3.48
2022-12-04T08:48:59.596Z,3.38
2022-12-04T08:51:30.235Z,3.25
2022-12-04T08:54:01.026Z,3.16
2022-12-04T08:56:30.312Z,3.83
2022-12-04T08:58:59.124Z,3.68
2022-12-04T09:01:28.148Z,3.46
2022-12-04T09:03:57.167Z,4.05
2022-12-04T09:06:26.808Z,3.63
2022-12-04T09:08:56.163Z,4.05
2022-12-04T09:11:26.344Z,3.66
2022-12-04T09:13:56.774Z,4.05
2022-12-04T09:16:26.093Z,4.06
2022-12-04T09:18:55.649Z,4.42
2022-12-04T09:21:24.822Z,4.59
2022-12-04T09:23:53.300Z,4.46
2022-12-04T09:26:30.694Z,3.91
2022-12-04T09:29:00.720Z,3.29
2022-12-04T09:31:30.287Z,4.01
2022-12-04T09:34:00.223Z,3.83
2022-12-04T09:36:29.842Z,4.08
2022-12-04T09:38:59.152Z,3.52
2022-12-04T09:41:41.694Z,3.67
2022-12-04T09:44:44.053Z,3.93
2022-12-04T09:47:26.294Z,4.39
2022-12-04T09:50:02.262Z,4.65
2022-12-04T09:52:43.016Z,4.86
2022-12-04T09:55:27.947Z,4.26
2022-12-04T09:58:02.008Z,4.31
2022-12-04T10:00:31.889Z,4.23
2022-12-04T10:03:06.158Z,4.25
2022-12-04T10:05:43.054Z,4.25
2022-12-04T10:08:43.850Z,4.79
2022-12-04T10:11:27.713Z,4.69
2022-12-04T10:14:02.734Z,4.64
2022-12-04T10:16:34.697Z,4.68
2022-12-04T10:19:14.830Z,4.56
2022-12-04T10:22:13.041Z,4.59
2022-12-04T10:25:12.456Z,4.56
2022-12-04T10:27:58.042Z,4.80
2022-12-04T10:30:27.987Z,4.62
2022-12-04T10:33:01.942Z,4.44
2022-12-04T10:35:33.216Z,4.56
2022-12-04T10:38:07.061Z,4.83
2022-12-04T10:40:47.669Z,4.82
2022-12-04T10:43:37.164Z,4.14
2022-12-04T10:46:06.348Z,4.07
2022-12-04T10:48:40.167Z,4.51
2022-12-04T10:51:20.185Z,4.11
2022-12-04T10:53:50.295Z,3.56
2022-12-04T10:56:26.300Z,3.47
2022-12-04T10:59:01.217Z,3.54
2022-12-04T11:01:31.773Z,4.19
2022-12-04T11:04:09.174Z,3.08
2022-12-04T11:06:38.915Z,3.96
2022-12-04T11:09:07.852Z,3.01
2022-12-04T11:11:36.811Z,3.29
2022-12-04T11:14:15.963Z,3.72
2022-12-04T11:16:46.321Z,4.04
2022-12-04T11:19:35.879Z,4.24
2022-12-04T11:22:18.575Z,4.53
2022-12-04T11:24:51.500Z,4.74
2022-12-04T11:27:32.074Z,5.00
2022-12-04T11:30:11.791Z,4.58
2022-12-04T11:32:42.429Z,4.78
2022-12-04T11:35:17.881Z,3.98
2022-12-04T11:37:54.951Z,4.67
2022-12-04T11:40:23.939Z,3.43
2022-12-04T11:43:15.391Z,3.31
2022-12-04T11:46:03.735Z,4.08
2022-12-04T11:48:32.781Z,4.81
2022-12-04T11:51:34.780Z,4.89
2022-12-04T11:54:17.258Z,5.08
2022-12-04T11:56:51.646Z,5.15
2022-12-04T11:59:47.860Z,5.15
2022-12-04T12:02:32.041Z,4.91
2022-12-04T12:05:19.448Z,4.97
2022-12-04T12:08:09.719Z,3.85
2022-12-04T12:11:03.437Z,3.86
2022-12-04T12:13:50.621Z,4.22
2022-12-04T12:19:55.738Z,4.03
2022-12-04T12:22:39.863Z,4.47
2022-12-04T12:25:25.680Z,4.56
2022-12-04T12:28:03.309Z,4.17
2022-12-04T12:31:02.492Z,4.15
2022-12-04T12:33:37.341Z,3.79
2022-12-04T12:36:09.388Z,3.84
2022-12-04T12:38:45.350Z,3.74
2022-12-04T12:41:14.974Z,3.72
2022-12-04T12:43:45.854Z,3.97
2022-12-04T12:46:23.379Z,4.43
2022-12-04T12:49:03.464Z,4.05
2022-12-04T12:51:57.748Z,3.82
2022-12-04T12:54:52.795Z,4.46
2022-12-04T12:57:38.613Z,4.26
2022-12-04T13:00:14.702Z,4.05
2022-12-04T13:02:48.162Z,4.30
2022-12-04T13:05:19.983Z,3.99
2022-12-04T13:08:23.541Z,4.13
2022-12-04T13:10:55.698Z,4.14
2022-12-04T13:13:28.892Z,3.77
2022-12-04T13:16:10.247Z,4.09
2022-12-04T13:18:52.344Z,4.47
2022-12-04T13:21:42.953Z,4.77
2022-12-04T13:24:42.340Z,4.94
2022-12-04T13:27:48.305Z,4.67
2022-12-04T13:30:18.536Z,4.60
2022-12-04T13:33:07.642Z,5.10
2022-12-04T13:36:06.934Z,5.32
2022-12-04T13:38:47.362Z,5.25
2022-12-04T13:41:20.550Z,5.26
2022-12-04T13:43:50.180Z,5.13
2022-12-04T13:46:35.234Z,5.13
2022-12-04T13:49:19.421Z,5.24
2022-12-04T13:51:48.804Z,5.11
2022-12-04T13:54:17.134Z,5.09
2022-12-04T13:56:51.183Z,5.03
2022-12-04T13:59:28.755Z,5.15
2022-12-04T14:02:02.228Z,5.20
2022-12-04T14:04:41.237Z,5.00
2022-12-04T14:07:27.599Z,5.10
2022-12-04T14:09:57.178Z,4.86
2022-12-04T14:12:37.885Z,4.66
2022-12-04T14:15:24.230Z,3.92
2022-12-04T14:18:11.345Z,4.74
2022-12-04T14:20:41.021Z,4.44
2022-12-04T14:23:26.841Z,4.17
2022-12-04T14:25:57.994Z,4.25
2022-12-04T14:28:26.979Z,4.01
2022-12-04T14:31:16.835Z,3.86
2022-12-04T14:33:52.652Z,4.32
2022-12-04T14:36:25.247Z,3.94
2022-12-04T14:39:05.110Z,4.37
2022-12-04T14:41:33.657Z,4.47
2022-12-04T14:44:02.826Z,4.40
2022-12-04T14:46:46.519Z,4.55
2022-12-04T14:49:39.811Z,4.61
2022-12-04T14:52:15.835Z,4.27
2022-12-04T14:55:09.010Z,4.48
2022-12-04T14:58:26.859Z,4.39
2022-12-04T15:00:55.827Z,3.69
2022-12-04T15:03:24.539Z,3.26
2022-12-04T15:06:05.123Z,3.89
2022-12-04T15:08:33.693Z,3.74
2022-12-04T15:11:20.703Z,3.94
2022-12-04T15:13:49.175Z,4.13
2022-12-04T15:16:19.919Z,4.10
2022-12-04T15:18:58.552Z,4.12
2022-12-04T15:21:40.582Z,4.03
2022-12-04T15:24:27.906Z,4.11
2022-12-04T15:26:57.319Z,4.32
2022-12-04T15:29:27.560Z,4.30
2022-12-04T15:31:58.238Z,3.63
2022-12-04T15:34:39.174Z,3.45
2022-12-04T15:37:10.630Z,3.08
2022-12-04T15:39:39.435Z,2.72
2022-12-04T15:42:17.563Z,3.18
2022-12-04T15:44:53.566Z,3.41
2022-12-04T15:47:24.095Z,3.60
2022-12-04T15:49:52.796Z,3.50
2022-12-04T15:52:24.813Z,3.36
2022-12-04T15:55:07.010Z,3.68
2022-12-04T15:57:37.383Z,3.89
2022-12-04T16:00:08.223Z,3.82
2022-12-04T16:02:40.600Z,3.15
2022-12-04T16:05:21.674Z,3.54
2022-12-04T16:07:57.426Z,4.03
2022-12-04T16:10:30.969Z,3.83
2022-12-04T16:13:01.638Z,3.95
2022-12-04T16:15:44.135Z,4.16
2022-12-04T16:18:14.810Z,3.89
2022-12-04T16:20:45.173Z,3.87
2022-12-04T16:23:14.134Z,4.11
2022-12-04T16:25:42.676Z,3.59
2022-12-04T16:28:11.508Z,3.98
2022-12-04T16:30:40.059Z,4.19
2022-12-04T16:33:12.116Z,3.90
2022-12-04T16:35:40.816Z,4.20
2022-12-04T16:38:17.685Z,4.45
2022-12-04T16:40:49.161Z,4.15
2022-12-04T16:43:18.103Z,4.40
2022-12-04T16:45:49.276Z,3.97
2022-12-04T16:48:17.776Z,3.47
2022-12-04T16:50:46.569Z,2.60
2022-12-04T16:53:17.502Z,3.23
2022-12-04T16:55:48.362Z,3.31
2022-12-04T16:58:17.389Z,3.46
2022-12-04T17:00:51.857Z,3.55
2022-12-04T17:03:29.387Z,3.51
2022-12-04T17:05:58.618Z,2.95
2022-12-04T17:08:27.727Z,2.91
2022-12-04T17:10:57.887Z,2.65
2022-12-04T17:13:27.622Z,3.08
2022-12-04T17:15:58.966Z,2.61
2022-12-04T17:18:28.207Z,1.99
2022-12-04T17:20:57.348Z,2.72
2022-12-04T17:23:28.950Z,2.66
2022-12-04T17:26:06.554Z,2.25
2022-12-04T17:28:37.582Z,1.84
2022-12-04T17:31:17.349Z,2.20
2022-12-04T17:33:48.428Z,1.87
2022-12-04T17:36:21.040Z,1.39
2022-12-04T17:38:53.985Z,1.48
2022-12-04T17:41:22.510Z,1.25
2022-12-04T17:43:51.863Z,1.38
2022-12-04T17:46:23.261Z,1.78
2022-12-04T17:48:52.778Z,2.03
2022-12-04T17:51:23.179Z,2.56
2022-12-04T17:53:53.250Z,2.37
2022-12-04T17:56:24.074Z,1.59
2022-12-04T17:58:54.146Z,2.48
2022-12-04T18:01:24.692Z,2.41
2022-12-04T18:03:55.543Z,3.34
2022-12-04T18:06:28.728Z,3.54
2022-12-04T18:08:57.665Z,3.21
2022-12-04T18:11:29.893Z,3.13
2022-12-04T18:14:07.134Z,3.28
2022-12-04T18:16:44.290Z,2.91
2022-12-04T18:19:14.165Z,3.47
2022-12-04T18:21:42.761Z,3.74
2022-12-04T18:24:13.387Z,3.62
2022-12-04T18:26:47.960Z,3.72
2022-12-04T18:29:22.207Z,4.06
2022-12-04T18:31:51.811Z,4.27
2022-12-04T18:34:21.543Z,4.23
2022-12-04T18:36:53.259Z,3.91
2022-12-04T18:39:26.831Z,4.17
2022-12-04T18:42:00.119Z,4.05
2022-12-04T18:44:32.302Z,3.59
2022-12-04T18:47:03.184Z,3.85
2022-12-04T18:49:35.893Z,3.69
2022-12-04T18:52:07.433Z,3.02
2022-12-04T18:54:38.964Z,2.90
2022-12-04T18:57:10.749Z,3.09
2022-12-04T18:59:41.371Z,3.22
2022-12-04T19:02:14.819Z,3.50
2022-12-04T19:04:48.389Z,3.48
2022-12-04T19:07:18.964Z,3.18
2022-12-04T19:12:39.437Z,3.92
2022-12-04T19:15:08.963Z,4.25
2022-12-04T19:17:37.908Z,4.39
2022-12-04T19:20:07.455Z,4.36
2022-12-04T19:22:39.612Z,4.29
2022-12-04T19:25:11.252Z,4.25
2022-12-04T19:27:41.696Z,4.27
2022-12-04T19:30:11.267Z,4.00
2022-12-04T19:32:41.953Z,3.70
2022-12-04T19:35:12.505Z,3.68
2022-12-04T19:37:42.459Z,3.67
2022-12-04T19:40:14.205Z,4.00
2022-12-04T19:42:42.573Z,4.11
2022-12-04T19:45:11.175Z,4.02
2022-12-04T19:47:40.436Z,4.24
2022-12-04T19:50:09.835Z,4.23
2022-12-04T19:52:39.055Z,4.26
2022-12-04T19:55:09.810Z,4.18
2022-12-04T19:57:38.868Z,4.21
2022-12-04T20:00:11.241Z,4.35
2022-12-04T20:02:42.979Z,4.35
2022-12-04T20:05:11.723Z,4.24
2022-12-04T20:07:40.776Z,4.35
2022-12-04T20:10:09.683Z,4.40
2022-12-04T20:12:38.550Z,4.19
2022-12-04T20:15:07.376Z,4.34
2022-12-04T20:17:35.824Z,4.33
2022-12-04T20:20:04.586Z,4.33
2022-12-04T20:22:35.295Z,4.37
2022-12-04T20:25:05.297Z,3.85
2022-12-04T20:27:34.587Z,3.42
2022-12-04T20:30:03.321Z,3.57
2022-12-04T20:32:31.864Z,3.57
2022-12-04T20:35:00.362Z,3.62
2022-12-04T20:37:28.867Z,2.87
2022-12-04T20:39:57.403Z,3.31
2022-12-04T20:42:31.783Z,3.41
2022-12-04T20:45:03.766Z,3.83
2022-12-04T20:47:33.690Z,3.45
2022-12-04T20:50:03.658Z,3.41
2022-12-04T20:52:32.058Z,3.37
2022-12-04T20:55:00.923Z,3.42
2022-12-04T20:57:31.562Z,3.07
2022-12-04T21:00:00.004Z,3.45
2022-12-04T21:02:29.264Z,2.78
2022-12-04T21:04:57.684Z,3.07
2022-12-04T21:07:26.283Z,3.04
2022-12-04T21:09:55.571Z,3.01
2022-12-04T21:12:43.466Z,3.46
2022-12-04T21:15:31.677Z,3.50
2022-12-04T21:18:01.805Z,3.86
2022-12-04T21:20:30.249Z,3.93
2022-12-04T21:22:58.682Z,3.80
2022-12-04T21:25:28.027Z,3.82
2022-12-04T21:27:56.999Z,3.59
2022-12-04T21:30:25.451Z,3.86
2022-12-04T21:32:53.890Z,3.67
2022-12-04T21:35:22.235Z,3.91
2022-12-04T21:37:50.616Z,3.98
2022-12-04T21:40:19.029Z,4.12
2022-12-04T21:42:47.443Z,3.86
2022-12-04T21:45:15.868Z,2.86
2022-12-04T21:47:44.256Z,3.32
2022-12-04T21:50:12.633Z,3.99
2022-12-04T21:52:41.215Z,3.85
2022-12-04T21:55:10.260Z,3.90
2022-12-04T21:57:38.785Z,3.76
2022-12-04T22:00:07.843Z,3.74
2022-12-04T22:02:38.257Z,3.75
2022-12-04T22:05:06.987Z,3.74
2022-12-04T22:07:35.404Z,3.83
2022-12-04T22:10:10.053Z,4.16
2022-12-04T22:12:49.645Z,4.13
2022-12-04T22:15:19.112Z,4.06
2022-12-04T22:17:47.455Z,4.06
2022-12-04T22:20:16.033Z,4.00
2022-12-04T22:22:44.970Z,4.13
2022-12-04T22:25:14.713Z,4.33
2022-12-04T22:27:43.031Z,4.42
2022-12-04T22:30:12.356Z,4.28
2022-12-04T22:32:40.693Z,4.35
2022-12-04T22:35:10.115Z,4.31
2022-12-04T22:37:42.765Z,4.39
2022-12-04T22:40:14.180Z,4.21
2022-12-04T22:42:43.254Z,3.80
2022-12-04T22:45:12.017Z,4.09
2022-12-04T22:47:41.047Z,3.98
2022-12-04T22:50:10.279Z,4.32
2022-12-04T22:52:39.401Z,4.13
2022-12-04T22:55:08.147Z,4.09
2022-12-04T22:57:36.493Z,3.97
2022-12-04T23:00:05.644Z,4.15
2022-12-04T23:02:33.989Z,3.92
2022-12-04T23:05:03.103Z,3.90
2022-12-04T23:07:31.605Z,3.95
2022-12-04T23:10:00.113Z,4.19
2022-12-04T23:12:29.886Z,4.13
2022-12-04T23:14:58.272Z,4.27
2022-12-04T23:17:26.527Z,4.19
2022-12-04T23:19:55.222Z,4.12
2022-12-04T23:22:23.812Z,4.34
2022-12-04T23:24:52.090Z,4.38
2022-12-04T23:27:21.005Z,4.18
2022-12-04T23:29:53.532Z,4.29
2022-12-04T23:32:32.930Z,4.32
2022-12-04T23:35:01.620Z,4.43
2022-12-04T23:37:29.939Z,4.48
2022-12-04T23:39:58.504Z,4.44
2022-12-04T23:42:31.571Z,4.29
2022-12-04T23:45:00.073Z,4.30
2022-12-04T23:47:29.213Z,4.33
2022-12-04T23:49:58.287Z,4.34
2022-12-04T23:52:27.304Z,3.88
2022-12-04T23:54:55.794Z,4.17
2022-12-04T23:57:24.721Z,4.10
2022-12-04T23:59:53.686Z,4.24
